Time;durP1;ratioP1;P1;durP2;ratioP2;P2;SDS_P1;SDS_P2;PMS_P1;PMS_P2;Temp;Humidity;BMP_temperature;BMP_pressure;BME280_temperature;BME280_humidity;BME280_pressure;Samples;Min_cycle;Max_cycle;Signal;HPM_P1;HPM_P2
2022/02/19 00:00:08;;;;;;;8.30;2.28;;;;;;;;;;5055017;28;20190;-74
2022/02/19 00:02:35;;;;;;;5.03;1.70;;;;;;;;;;5056669;28;20572;-74
2022/02/19 00:05:02;;;;;;;5.03;2.40;;;;;;;;;;5058254;28;20669;-73
2022/02/19 00:07:29;;;;;;;9.10;1.90;;;;;;;;;;5057430;28;20190;-74
2022/02/19 00:09:56;;;;;;;5.22;1.95;;;;;;;;;;5058956;28;20194;-74
2022/02/19 00:12:23;;;;;;;6.03;2.28;;;;;;;;;;5061580;28;20198;-75
2022/02/19 00:14:52;;;;;;;6.07;1.70;;;;;;;;;;5060683;28;20218;-74
2022/02/19 00:17:20;;;;;;;10.68;2.58;;;;;;;;;;5058215;28;20198;-76
2022/02/19 00:19:47;;;;;;;10.52;3.03;;;;;;;;;;5059610;28;20213;-73
2022/02/19 00:22:14;;;;;;;7.20;2.10;;;;;;;;;;5060508;28;20549;-74
2022/02/19 00:24:41;;;;;;;5.25;1.75;;;;;;;;;;5056641;28;20222;-73
2022/02/19 00:27:08;;;;;;;8.07;2.55;;;;;;;;;;5058650;28;20526;-74
2022/02/19 00:29:35;;;;;;;5.40;2.10;;;;;;;;;;5058074;28;20317;-73
2022/02/19 00:32:04;;;;;;;8.32;2.05;;;;;;;;;;5060176;28;20664;-73
2022/02/19 00:34:31;;;;;;;4.07;2.15;;;;;;;;;;5060153;28;20214;-75
2022/02/19 00:36:58;;;;;;;3.97;2.05;;;;;;;;;;5061371;28;20287;-74
2022/02/19 00:39:25;;;;;;;5.28;1.45;;;;;;;;;;5056894;28;20685;-74
2022/02/19 00:41:52;;;;;;;4.70;2.05;;;;;;;;;;5062669;28;20677;-73
2022/02/19 00:44:19;;;;;;;4.65;2.13;;;;;;;;;;5061341;28;20210;-73
2022/02/19 00:46:46;;;;;;;7.85;1.65;;;;;;;;;;5065471;28;20198;-73
2022/02/19 00:49:15;;;;;;;4.10;1.65;;;;;;;;;;5067779;28;20217;-73
2022/02/19 00:51:42;;;;;;;6.95;2.00;;;;;;;;;;5068444;28;20430;-76
2022/02/19 00:54:09;;;;;;;4.15;1.77;;;;;;;;;;5066868;28;20703;-74
2022/02/19 00:56:36;;;;;;;5.38;1.75;;;;;;;;;;5064977;28;20572;-76
2022/02/19 00:59:03;;;;;;;3.53;1.63;;;;;;;;;;5068747;28;20671;-75
2022/02/19 01:01:30;;;;;;;5.70;2.00;;;;;;;;;;5068252;28;20201;-74
2022/02/19 01:03:57;;;;;;;7.57;1.80;;;;;;;;;;5065350;28;20202;-74
2022/02/19 01:06:26;;;;;;;5.97;2.28;;;;;;;;;;5062996;28;20198;-73
2022/02/19 01:08:53;;;;;;;7.30;2.15;;;;;;;;;;5060407;28;20226;-74
2022/02/19 01:11:21;;;;;;;9.25;2.78;;;;;;;;;;5067222;28;20195;-74
2022/02/19 01:13:48;;;;;;;7.32;1.85;;;;;;;;;;5063977;28;20209;-75
2022/02/19 01:16:15;;;;;;;10.57;2.78;;;;;;;;;;5065704;28;20217;-73
2022/02/19 01:18:42;;;;;;;10.43;2.50;;;;;;;;;;5066169;28;20205;-75
2022/02/19 01:21:09;;;;;;;2.92;1.40;;;;;;;;;;5067725;28;20202;-75
2022/02/19 01:23:38;;;;;;;6.57;1.90;;;;;;;;;;5066803;28;20198;-77
2022/02/19 01:26:05;;;;;;;7.30;2.10;;;;;;;;;;5065071;28;20580;-74
2022/02/19 01:28:34;;;;;;;4.28;1.90;;;;;;;;;;5066308;28;20279;-74
2022/02/19 01:31:01;;;;;;;4.60;1.60;;;;;;;;;;5064454;28;20607;-75
2022/02/19 01:33:28;;;;;;;4.57;1.85;;;;;;;;;;5059950;28;20209;-79
2022/02/19 01:35:55;;;;;;;5.10;1.40;;;;;;;;;;5058625;28;20231;-73
2022/02/19 01:38:24;;;;;;;6.13;2.38;;;;;;;;;;5064499;28;20210;-73
2022/02/19 01:40:52;;;;;;;4.97;1.90;;;;;;;;;;5064710;28;20425;-74
2022/02/19 01:43:19;;;;;;;6.43;1.85;;;;;;;;;;5061033;28;20210;-73
2022/02/19 01:45:47;;;;;;;6.93;2.00;;;;;;;;;;5071063;28;20205;-74
2022/02/19 01:48:14;;;;;;;5.20;1.70;;;;;;;;;;5064293;28;20197;-72
2022/02/19 01:50:41;;;;;;;8.43;1.98;;;;;;;;;;5063527;28;20197;-73
2022/02/19 01:53:09;;;;;;;4.75;2.00;;;;;;;;;;5067645;28;20201;-73
2022/02/19 01:55:36;;;;;;;2.85;1.95;;;;;;;;;;5061743;28;20221;-75
2022/02/19 01:58:06;;;;;;;7.32;3.58;;;;;;;;;;5063500;28;20217;-74
2022/02/19 02:00:33;;;;;;;11.55;1.95;;;;;;;;;;5069696;28;20230;-76
2022/02/19 02:03:01;;;;;;;7.10;1.85;;;;;;;;;;5067098;28;20215;-74
2022/02/19 02:05:28;;;;;;;8.40;1.70;;;;;;;;;;5068433;28;20198;-73
2022/02/19 02:07:56;;;;;;;4.70;1.60;;;;;;;;;;5064875;28;20581;-75
2022/02/19 02:10:24;;;;;;;4.90;1.60;;;;;;;;;;5061488;28;20195;-75
2022/02/19 02:12:51;;;;;;;6.82;2.00;;;;;;;;;;5064628;28;20225;-75
2022/02/19 02:15:27;;;;;;;2.13;1.30;;;;;;;;;;5062324;28;20226;-74
2022/02/19 02:17:54;;;;;;;12.95;2.00;;;;;;;;;;5068382;28;20194;-74
2022/02/19 02:20:21;;;;;;;6.10;1.73;;;;;;;;;;5069464;28;20194;-76
2022/02/19 02:22:50;;;;;;;10.18;1.95;;;;;;;;;;5068205;28;20206;-74
2022/02/19 02:25:17;;;;;;;6.00;1.67;;;;;;;;;;5065498;28;20686;-74
2022/02/19 02:27:44;;;;;;;10.18;1.85;;;;;;;;;;5074621;28;20201;-74
2022/02/19 02:30:12;;;;;;;6.43;2.70;;;;;;;;;;5073161;28;20205;-74
2022/02/19 02:32:39;;;;;;;5.72;1.83;;;;;;;;;;5068978;28;20198;-75
2022/02/19 02:35:06;;;;;;;4.65;1.50;;;;;;;;;;5067789;28;20244;-73
2022/02/19 02:37:33;;;;;;;4.85;1.55;;;;;;;;;;5067920;28;20209;-74
2022/02/19 02:40:02;;;;;;;10.40;2.63;;;;;;;;;;5066487;28;20190;-73
2022/02/19 02:42:29;;;;;;;3.72;1.50;;;;;;;;;;5076549;28;20212;-73
2022/02/19 02:44:56;;;;;;;9.38;2.03;;;;;;;;;;5064646;28;20201;-73
2022/02/19 02:47:24;;;;;;;7.47;1.98;;;;;;;;;;5068278;28;20205;-74
2022/02/19 02:49:51;;;;;;;5.10;1.60;;;;;;;;;;5066967;28;20195;-75
2022/02/19 02:52:18;;;;;;;5.13;1.70;;;;;;;;;;5060811;28;20253;-74
2022/02/19 02:54:45;;;;;;;5.95;2.10;;;;;;;;;;5060867;28;20217;-75
2022/02/19 02:57:14;;;;;;;6.68;1.75;;;;;;;;;;5068176;28;20205;-75
2022/02/19 02:59:41;;;;;;;3.55;1.35;;;;;;;;;;5066597;28;20546;-76
2022/02/19 03:02:09;;;;;;;2.97;1.60;;;;;;;;;;5064124;28;20198;-75
2022/02/19 03:04:36;;;;;;;5.35;1.65;;;;;;;;;;5066495;28;20573;-74
2022/02/19 03:07:03;;;;;;;7.15;2.15;;;;;;;;;;5068885;28;20198;-75
2022/02/19 03:09:30;;;;;;;7.18;2.85;;;;;;;;;;5061886;28;20187;-73
2022/02/19 03:11:58;;;;;;;8.55;2.42;;;;;;;;;;5063480;28;20205;-72
2022/02/19 03:14:26;;;;;;;3.92;1.38;;;;;;;;;;5069751;28;20372;-73
2022/02/19 03:16:53;;;;;;;5.60;1.80;;;;;;;;;;5066059;28;20652;-73
2022/02/19 03:19:21;;;;;;;6.88;1.92;;;;;;;;;;5055413;28;20194;-74
2022/02/19 03:21:48;;;;;;;4.25;2.00;;;;;;;;;;5065372;28;20232;-74
2022/02/19 03:24:15;;;;;;;3.75;1.67;;;;;;;;;;5063537;28;20194;-73
2022/02/19 03:26:43;;;;;;;6.00;1.70;;;;;;;;;;5064491;28;20210;-73
2022/02/19 03:29:10;;;;;;;5.60;2.00;;;;;;;;;;5067203;28;20194;-74
2022/02/19 03:31:38;;;;;;;3.05;1.17;;;;;;;;;;5063665;28;20194;-77
2022/02/19 03:34:05;;;;;;;3.20;1.45;;;;;;;;;;5066436;28;20201;-75
2022/02/19 03:36:32;;;;;;;4.20;1.75;;;;;;;;;;5065891;28;20214;-74
2022/02/19 03:38:59;;;;;;;3.35;1.45;;;;;;;;;;5067012;28;20202;-75
2022/02/19 03:41:26;;;;;;;4.05;1.60;;;;;;;;;;5064371;28;20205;-74
2022/02/19 03:43:54;;;;;;;4.72;2.20;;;;;;;;;;5066365;28;20206;-74
2022/02/19 03:46:22;;;;;;;2.58;1.23;;;;;;;;;;5064694;28;20198;-74
2022/02/19 03:48:50;;;;;;;5.03;2.15;;;;;;;;;;5059991;28;20210;-77
2022/02/19 03:51:17;;;;;;;3.42;1.80;;;;;;;;;;5062126;28;20229;-75
2022/02/19 03:53:44;;;;;;;5.20;1.38;;;;;;;;;;5064535;28;20212;-74
2022/02/19 03:56:11;;;;;;;7.13;1.58;;;;;;;;;;5057902;28;20219;-75
2022/02/19 03:58:38;;;;;;;4.95;1.60;;;;;;;;;;5066820;28;20194;-75
2022/02/19 04:01:06;;;;;;;5.18;1.17;;;;;;;;;;5068117;28;20190;-72
2022/02/19 04:03:33;;;;;;;8.40;1.90;;;;;;;;;;5060955;28;20546;-75
2022/02/19 04:06:02;;;;;;;3.30;1.60;;;;;;;;;;5062620;28;20290;-75
2022/02/19 04:08:29;;;;;;;2.78;1.25;;;;;;;;;;5066345;28;20387;-75
2022/02/19 04:10:56;;;;;;;5.55;1.88;;;;;;;;;;5063860;28;20194;-75
2022/02/19 04:13:23;;;;;;;6.97;1.88;;;;;;;;;;5068871;28;20349;-75
2022/02/19 04:15:50;;;;;;;4.50;1.40;;;;;;;;;;5066567;28;20225;-72
2022/02/19 04:18:17;;;;;;;1.45;1.17;;;;;;;;;;5067881;28;20194;-74
2022/02/19 04:20:44;;;;;;;3.50;2.55;;;;;;;;;;5067443;28;20245;-74
2022/02/19 04:23:13;;;;;;;6.95;1.80;;;;;;;;;;5066897;28;21618;-75
2022/02/19 04:25:40;;;;;;;2.97;2.10;;;;;;;;;;5063931;28;20693;-73
2022/02/19 04:28:08;;;;;;;3.72;0.90;;;;;;;;;;5069746;28;20212;-75
2022/02/19 04:30:36;;;;;;;4.50;1.38;;;;;;;;;;5060675;28;20289;-74
2022/02/19 04:33:03;;;;;;;4.13;1.52;;;;;;;;;;5067983;28;20199;-75
2022/02/19 04:35:31;;;;;;;3.03;1.33;;;;;;;;;;5065318;28;20217;-75
2022/02/19 04:37:58;;;;;;;2.67;1.73;;;;;;;;;;5065547;28;20201;-74
2022/02/19 04:40:26;;;;;;;4.53;1.40;;;;;;;;;;5062744;28;20194;-74
2022/02/19 04:42:54;;;;;;;4.05;1.45;;;;;;;;;;5067462;28;20210;-76
2022/02/19 04:45:21;;;;;;;4.60;1.50;;;;;;;;;;5067394;28;20204;-74
2022/02/19 04:47:48;;;;;;;1.92;1.33;;;;;;;;;;5067290;28;20198;-75
2022/02/19 04:50:15;;;;;;;2.47;1.33;;;;;;;;;;5060425;28;20199;-72
2022/02/19 04:52:43;;;;;;;5.15;1.30;;;;;;;;;;5067928;28;20198;-74
2022/02/19 04:55:10;;;;;;;3.30;2.10;;;;;;;;;;5062363;28;20210;-75
2022/02/19 04:57:43;;;;;;;6.05;1.60;;;;;;;;;;5064248;28;20195;-74
2022/02/19 05:00:10;;;;;;;3.67;1.50;;;;;;;;;;5074263;28;20741;-73
2022/02/19 05:02:37;;;;;;;3.33;1.77;;;;;;;;;;5066934;28;20206;-74
2022/02/19 05:05:05;;;;;;;4.93;1.55;;;;;;;;;;5060852;28;22097;-74
2022/02/19 05:07:32;;;;;;;7.35;2.30;;;;;;;;;;5059241;28;20210;-74
2022/02/19 05:09:59;;;;;;;6.47;1.35;;;;;;;;;;5062040;28;20190;-73
2022/02/19 05:12:26;;;;;;;2.20;1.25;;;;;;;;;;5062850;28;20199;-71
2022/02/19 05:14:54;;;;;;;3.75;1.58;;;;;;;;;;5066180;28;20201;-77
2022/02/19 05:17:22;;;;;;;6.53;1.70;;;;;;;;;;5063139;28;20286;-73
2022/02/19 05:19:49;;;;;;;3.58;1.33;;;;;;;;;;5065447;28;20198;-73
2022/02/19 05:22:16;;;;;;;4.72;1.42;;;;;;;;;;5068489;28;20687;-72
2022/02/19 05:24:43;;;;;;;5.22;1.58;;;;;;;;;;5064977;28;20218;-72
2022/02/19 05:27:10;;;;;;;3.50;1.60;;;;;;;;;;5070840;28;20198;-73
2022/02/19 05:29:37;;;;;;;3.20;1.40;;;;;;;;;;5066307;28;20561;-76
2022/02/19 05:32:06;;;;;;;2.95;1.63;;;;;;;;;;5068644;28;20221;-73
2022/02/19 05:34:33;;;;;;;4.05;1.88;;;;;;;;;;5067354;28;20190;-73
2022/02/19 05:37:00;;;;;;;5.68;1.50;;;;;;;;;;5063841;28;20214;-73
2022/02/19 05:39:27;;;;;;;4.30;1.80;;;;;;;;;;5066102;28;20195;-74
2022/02/19 05:41:54;;;;;;;10.27;3.72;;;;;;;;;;5060576;28;20198;-74
2022/02/19 05:44:21;;;;;;;8.57;2.13;;;;;;;;;;5071683;28;20202;-74
2022/02/19 05:46:48;;;;;;;4.55;2.17;;;;;;;;;;5064075;28;20210;-76
2022/02/19 05:49:16;;;;;;;5.57;1.70;;;;;;;;;;5068598;28;21811;-76
2022/02/19 05:51:43;;;;;;;4.90;1.42;;;;;;;;;;5064972;28;20201;-75
2022/02/19 05:54:10;;;;;;;3.33;1.38;;;;;;;;;;5067308;28;20623;-75
2022/02/19 05:56:37;;;;;;;5.38;1.60;;;;;;;;;;5063339;28;20213;-75
2022/02/19 05:59:05;;;;;;;3.75;1.30;;;;;;;;;;5071844;28;20201;-75
2022/02/19 06:01:32;;;;;;;4.80;1.95;;;;;;;;;;5065486;28;20198;-74
2022/02/19 06:03:59;;;;;;;4.10;1.45;;;;;;;;;;5069092;28;20193;-74
2022/02/19 06:06:27;;;;;;;6.10;1.58;;;;;;;;;;5068583;28;20545;-75
2022/02/19 06:08:54;;;;;;;3.58;1.60;;;;;;;;;;5068453;28;20190;-74
2022/02/19 06:11:21;;;;;;;4.80;1.80;;;;;;;;;;5065560;28;20198;-76
2022/02/19 06:13:48;;;;;;;5.30;1.70;;;;;;;;;;5075273;28;20534;-75
2022/02/19 06:16:16;;;;;;;4.43;1.58;;;;;;;;;;5068726;28;20727;-75
2022/02/19 06:18:43;;;;;;;10.50;1.77;;;;;;;;;;5071042;28;20653;-74
2022/02/19 06:21:10;;;;;;;5.03;1.80;;;;;;;;;;5061790;28;20191;-77
2022/02/19 06:23:38;;;;;;;5.03;1.30;;;;;;;;;;5070148;28;20197;-74
2022/02/19 06:26:05;;;;;;;3.42;1.80;;;;;;;;;;5057896;28;20221;-79
2022/02/19 06:28:33;;;;;;;4.13;2.45;;;;;;;;;;5064906;28;20194;-74
2022/02/19 06:31:00;;;;;;;5.50;1.50;;;;;;;;;;5061334;28;20206;-75
2022/02/19 06:33:27;;;;;;;6.30;1.95;;;;;;;;;;5064966;28;20202;-75
2022/02/19 06:35:54;;;;;;;2.65;1.50;;;;;;;;;;5068787;28;20217;-75
2022/02/19 06:38:22;;;;;;;4.85;1.60;;;;;;;;;;5064030;28;20202;-75
2022/02/19 06:40:50;;;;;;;3.05;1.23;;;;;;;;;;5064063;28;20190;-75
2022/02/19 06:43:18;;;;;;;5.05;1.50;;;;;;;;;;5061657;28;20202;-76
2022/02/19 06:45:45;;;;;;;4.57;1.67;;;;;;;;;;5066895;28;20216;-74
2022/02/19 06:48:12;;;;;;;4.18;1.50;;;;;;;;;;5065347;28;20201;-76
2022/02/19 06:50:39;;;;;;;6.68;2.05;;;;;;;;;;5066570;28;20610;-74
2022/02/19 06:53:06;;;;;;;4.22;1.60;;;;;;;;;;5063979;28;20190;-76
2022/02/19 06:55:33;;;;;;;5.03;1.52;;;;;;;;;;5062512;28;20598;-75
2022/02/19 06:58:02;;;;;;;4.78;1.35;;;;;;;;;;5065994;28;20209;-75
2022/02/19 07:00:29;;;;;;;5.68;1.52;;;;;;;;;;5063879;28;20198;-74
2022/02/19 07:02:56;;;;;;;5.75;2.22;;;;;;;;;;5068529;28;20202;-76
2022/02/19 07:05:23;;;;;;;4.90;1.77;;;;;;;;;;5066346;28;20194;-76
2022/02/19 07:07:50;;;;;;;5.45;2.10;;;;;;;;;;5065757;28;20228;-75
2022/02/19 07:10:17;;;;;;;4.65;1.73;;;;;;;;;;5062251;28;20214;-74
2022/02/19 07:12:44;;;;;;;5.53;2.20;;;;;;;;;;5069160;28;20194;-74
2022/02/19 07:15:13;;;;;;;5.47;2.30;;;;;;;;;;5065324;28;20591;-74
2022/02/19 07:17:47;;;;;;;4.25;1.30;;;;;;;;;;5065826;28;20218;-74
2022/02/19 07:20:14;;;;;;;4.68;1.80;;;;;;;;;;5066533;28;20243;-75
2022/02/19 07:22:42;;;;;;;3.80;1.70;;;;;;;;;;5066131;28;20194;-76
2022/02/19 07:25:10;;;;;;;4.68;2.13;;;;;;;;;;5064403;28;20212;-76
2022/02/19 07:27:37;;;;;;;3.50;1.63;;;;;;;;;;5067417;28;20203;-75
2022/02/19 07:30:05;;;;;;;7.32;2.13;;;;;;;;;;5067366;28;20198;-74
2022/02/19 07:32:33;;;;;;;3.05;1.45;;;;;;;;;;5067513;28;20198;-75
2022/02/19 07:35:00;;;;;;;10.88;2.15;;;;;;;;;;5068727;28;20198;-75
2022/02/19 07:37:27;;;;;;;5.10;2.20;;;;;;;;;;5068374;28;20220;-75
2022/02/19 07:39:54;;;;;;;5.85;1.83;;;;;;;;;;5061981;28;20205;-75
2022/02/19 07:42:21;;;;;;;5.53;2.20;;;;;;;;;;5057092;28;20210;-77
2022/02/19 07:44:48;;;;;;;5.80;1.80;;;;;;;;;;5060353;28;20205;-75
2022/02/19 07:47:22;;;;;;;4.03;1.92;;;;;;;;;;5062799;28;20202;-74
2022/02/19 07:58:20;;;;;;;5.57;2.25;;;;;;;;;;5063050;28;20752;-73
2022/02/19 08:00:47;;;;;;;4.57;1.80;;;;;;;;;;5060534;28;20281;-73
2022/02/19 08:03:14;;;;;;;5.05;2.55;;;;;;;;;;5061125;28;20293;-73
2022/02/19 08:05:43;;;;;;;4.25;2.10;;;;;;;;;;5065568;28;20202;-74
2022/02/19 08:08:10;;;;;;;4.43;2.00;;;;;;;;;;5061585;28;20190;-73
2022/02/19 08:10:37;;;;;;;4.90;1.77;;;;;;;;;;5053097;28;20774;-74
2022/02/19 08:13:07;;;;;;;3.67;1.55;;;;;;;;;;5060066;28;20205;-73
2022/02/19 08:15:35;;;;;;;13.18;3.03;;;;;;;;;;5059409;28;20194;-73
2022/02/19 08:18:02;;;;;;;8.25;2.25;;;;;;;;;;5060222;28;20535;-73
2022/02/19 08:20:30;;;;;;;6.00;1.73;;;;;;;;;;5059154;28;20197;-73
2022/02/19 08:22:59;;;;;;;3.45;1.88;;;;;;;;;;5057588;28;20872;-73
2022/02/19 08:25:26;;;;;;;5.40;2.28;;;;;;;;;;5057389;28;20218;-74
2022/02/19 08:27:53;;;;;;;8.93;2.40;;;;;;;;;;5063660;28;20698;-72
2022/02/19 08:30:21;;;;;;;5.00;1.95;;;;;;;;;;5060409;28;20653;-73
2022/02/19 08:32:48;;;;;;;6.30;2.30;;;;;;;;;;5061838;28;20214;-74
2022/02/19 08:35:15;;;;;;;5.95;3.45;;;;;;;;;;5061196;28;20210;-73
2022/02/19 08:37:42;;;;;;;4.35;2.88;;;;;;;;;;5062038;28;20704;-73
2022/02/19 08:40:11;;;;;;;5.35;1.67;;;;;;;;;;5059291;28;20201;-72
2022/02/19 08:42:38;;;;;;;7.22;1.77;;;;;;;;;;5059893;28;20201;-73
2022/02/19 08:45:06;;;;;;;7.05;2.10;;;;;;;;;;5060298;28;20190;-73
2022/02/19 08:47:34;;;;;;;8.95;2.65;;;;;;;;;;5061229;28;20668;-72
2022/02/19 08:50:01;;;;;;;4.20;2.28;;;;;;;;;;5057737;28;20263;-72
2022/02/19 08:52:28;;;;;;;3.17;1.80;;;;;;;;;;5060129;28;20192;-74
2022/02/19 08:54:55;;;;;;;6.55;2.30;;;;;;;;;;5061676;28;20194;-76
2022/02/19 08:57:24;;;;;;;10.10;2.42;;;;;;;;;;5065212;28;20218;-73
2022/02/19 08:59:51;;;;;;;3.50;1.73;;;;;;;;;;5059379;28;22154;-72
2022/02/19 09:02:18;;;;;;;5.20;2.03;;;;;;;;;;5056265;28;20209;-72
2022/02/19 09:04:45;;;;;;;3.92;1.85;;;;;;;;;;5063725;28;20809;-72
2022/02/19 09:07:16;;;;;;;4.68;2.20;;;;;;;;;;5066994;28;20194;-72
2022/02/19 09:09:43;;;;;;;3.42;1.50;;;;;;;;;;5063954;28;20543;-72
2022/02/19 09:12:10;;;;;;;3.53;1.35;;;;;;;;;;5070539;28;20193;-71
2022/02/19 09:14:39;;;;;;;5.60;1.65;;;;;;;;;;5068069;28;20190;-73
2022/02/19 09:17:06;;;;;;;6.43;2.30;;;;;;;;;;5068129;28;20206;-71
2022/02/19 09:19:33;;;;;;;6.85;2.30;;;;;;;;;;5064091;28;20194;-72
2022/02/19 09:22:01;;;;;;;8.77;2.20;;;;;;;;;;5061177;28;20209;-71
2022/02/19 09:24:28;;;;;;;3.88;1.90;;;;;;;;;;5061931;28;20190;-73
2022/02/19 09:26:56;;;;;;;10.77;2.40;;;;;;;;;;5066045;28;20190;-72
2022/02/19 09:29:23;;;;;;;5.07;2.38;;;;;;;;;;5065656;28;20194;-72
2022/02/19 09:31:51;;;;;;;5.75;2.05;;;;;;;;;;5068103;28;20191;-74
2022/02/19 09:34:21;;;;;;;4.00;1.83;;;;;;;;;;5061461;28;20198;-74
2022/02/19 09:36:48;;;;;;;5.25;2.05;;;;;;;;;;5067825;28;20268;-72
2022/02/19 09:39:15;;;;;;;4.20;1.55;;;;;;;;;;5062920;28;20190;-72
2022/02/19 09:41:44;;;;;;;5.88;2.70;;;;;;;;;;5067054;28;20220;-71
2022/02/19 09:44:11;;;;;;;5.05;2.00;;;;;;;;;;5062147;28;20210;-72
2022/02/19 09:46:38;;;;;;;3.30;2.10;;;;;;;;;;5070064;28;20201;-72
2022/02/19 09:49:07;;;;;;;7.20;2.25;;;;;;;;;;5065175;28;20194;-72
2022/02/19 09:51:35;;;;;;;2.70;1.23;;;;;;;;;;5067175;28;20206;-71
2022/02/19 09:54:02;;;;;;;4.65;2.45;;;;;;;;;;5062683;28;20197;-73
2022/02/19 09:56:30;;;;;;;3.63;1.63;;;;;;;;;;5058987;28;20198;-72
2022/02/19 09:58:58;;;;;;;4.05;2.00;;;;;;;;;;5058150;28;20225;-73
2022/02/19 10:01:26;;;;;;;7.88;2.80;;;;;;;;;;5058773;28;20198;-73
2022/02/19 10:03:57;;;;;;;5.90;1.70;;;;;;;;;;5056833;28;20202;-73
2022/02/19 10:06:29;;;;;;;7.88;1.48;;;;;;;;;;5062481;28;20619;-72
2022/02/19 10:09:09;;;;;;;10.80;1.60;;;;;;;;;;5067604;28;20216;-74
2022/02/19 10:11:37;;;;;;;5.95;1.40;;;;;;;;;;5071552;28;20201;-73
2022/02/19 10:14:19;;;;;;;5.47;2.30;;;;;;;;;;5069422;28;20289;-74
2022/02/19 10:17:03;;;;;;;7.90;1.85;;;;;;;;;;5070518;28;20560;-72
2022/02/19 10:19:30;;;;;;;7.07;1.90;;;;;;;;;;5064725;28;20205;-73
2022/02/19 10:22:10;;;;;;;9.20;2.28;;;;;;;;;;5063710;28;20372;-71
2022/02/19 10:24:37;;;;;;;4.82;1.63;;;;;;;;;;5061454;28;20214;-75
2022/02/19 10:27:05;;;;;;;3.42;1.77;;;;;;;;;;5060680;28;20198;-75
2022/02/19 10:29:46;;;;;;;2.67;1.33;;;;;;;;;;5067255;28;20289;-72
2022/02/19 10:32:14;;;;;;;5.22;1.90;;;;;;;;;;5069453;28;20200;-74
2022/02/19 10:34:54;;;;;;;5.72;1.95;;;;;;;;;;5066844;28;20217;-72
2022/02/19 10:37:25;;;;;;;3.05;1.40;;;;;;;;;;5068031;28;20217;-72
2022/02/19 10:39:53;;;;;;;4.78;2.50;;;;;;;;;;5070111;28;20198;-73
2022/02/19 10:42:31;;;;;;;4.45;1.70;;;;;;;;;;5072588;28;20206;-75
2022/02/19 10:44:58;;;;;;;2.72;1.90;;;;;;;;;;5068564;28;20201;-74
2022/02/19 10:47:26;;;;;;;4.50;1.65;;;;;;;;;;5066979;28;20203;-72
2022/02/19 10:50:11;;;;;;;6.18;2.20;;;;;;;;;;5058543;28;20190;-73
2022/02/19 10:52:40;;;;;;;2.33;1.75;;;;;;;;;;5061996;28;20281;-75
2022/02/19 10:55:08;;;;;;;7.88;1.60;;;;;;;;;;5062869;28;20195;-74
2022/02/19 10:57:38;;;;;;;1.65;1.13;;;;;;;;;;5071391;28;20248;-75
2022/02/19 11:00:13;;;;;;;4.78;1.98;;;;;;;;;;5068791;28;20195;-73
2022/02/19 11:02:41;;;;;;;4.15;1.77;;;;;;;;;;5063058;28;20205;-74
2022/02/19 11:05:09;;;;;;;4.32;1.65;;;;;;;;;;5065357;28;20709;-73
2022/02/19 11:07:36;;;;;;;3.88;1.45;;;;;;;;;;5065629;28;20251;-73
2022/02/19 11:10:05;;;;;;;4.90;1.08;;;;;;;;;;5066755;28;20206;-73
2022/02/19 11:12:32;;;;;;;4.03;1.55;;;;;;;;;;5069285;28;20199;-74
2022/02/19 11:15:00;;;;;;;5.60;1.98;;;;;;;;;;5062899;28;20194;-73
2022/02/19 11:17:29;;;;;;;6.97;1.70;;;;;;;;;;5067646;28;20241;-73
2022/02/19 11:19:58;;;;;;;5.13;1.85;;;;;;;;;;5060059;28;20549;-73
2022/02/19 11:22:26;;;;;;;7.22;1.73;;;;;;;;;;5069502;28;20198;-72
2022/02/19 11:24:53;;;;;;;3.53;1.85;;;;;;;;;;5061268;28;20218;-75
2022/02/19 11:27:21;;;;;;;4.15;1.92;;;;;;;;;;5063270;28;20249;-73
2022/02/19 11:29:50;;;;;;;3.65;1.50;;;;;;;;;;5065075;28;20570;-74
2022/02/19 11:32:17;;;;;;;4.45;1.80;;;;;;;;;;5062869;28;20213;-73
2022/02/19 11:34:49;;;;;;;3.78;1.73;;;;;;;;;;5058786;28;20194;-74
2022/02/19 11:37:17;;;;;;;4.00;1.42;;;;;;;;;;5068217;28;20214;-72
2022/02/19 11:40:03;;;;;;;2.55;1.52;;;;;;;;;;5070400;28;20198;-72
2022/02/19 11:42:42;;;;;;;2.88;1.42;;;;;;;;;;5071715;28;20213;-75
2022/02/19 11:45:19;;;;;;;4.05;1.40;;;;;;;;;;5064684;28;20198;-73
2022/02/19 11:47:47;;;;;;;4.55;1.60;;;;;;;;;;5069766;28;20272;-72
2022/02/19 11:50:18;;;;;;;6.60;1.35;;;;;;;;;;5063761;28;20194;-73
2022/02/19 11:52:45;;;;;;;2.38;1.52;;;;;;;;;;5064404;28;20640;-74
2022/02/19 11:55:28;;;;;;;4.18;2.15;;;;;;;;;;5061085;28;20653;-73
2022/02/19 11:58:02;;;;;;;5.30;1.85;;;;;;;;;;5061583;28;20616;-74
2022/02/19 12:00:48;;;;;;;4.35;1.80;;;;;;;;;;5064656;28;20194;-77
2022/02/19 12:03:23;;;;;;;5.00;1.88;;;;;;;;;;5062042;28;20198;-73
2022/02/19 12:06:09;;;;;;;3.28;1.95;;;;;;;;;;5052352;28;20210;-75
2022/02/19 12:08:59;;;;;;;7.40;1.75;;;;;;;;;;5064938;28;20198;-74
2022/02/19 12:11:27;;;;;;;5.75;1.85;;;;;;;;;;5064913;28;20202;-74
2022/02/19 12:13:57;;;;;;;2.80;1.67;;;;;;;;;;5067727;28;20221;-74
2022/02/19 12:16:41;;;;;;;4.32;1.90;;;;;;;;;;5057729;28;20202;-76
2022/02/19 12:19:10;;;;;;;3.45;1.40;;;;;;;;;;5056864;28;20218;-74
2022/02/19 12:21:38;;;;;;;4.28;1.95;;;;;;;;;;5065288;28;20420;-73
2022/02/19 12:24:12;;;;;;;3.33;1.50;;;;;;;;;;5055520;28;20543;-75
2022/02/19 12:26:59;;;;;;;4.05;2.08;;;;;;;;;;5058080;28;20221;-73
2022/02/19 12:29:29;;;;;;;5.30;1.63;;;;;;;;;;5058995;28;20286;-73
2022/02/19 12:32:02;;;;;;;2.72;1.40;;;;;;;;;;5056644;28;20318;-74
2022/02/19 12:34:30;;;;;;;3.92;1.50;;;;;;;;;;5057913;28;20201;-76
2022/02/19 12:36:59;;;;;;;2.65;1.50;;;;;;;;;;5056408;28;20193;-73
2022/02/19 12:39:26;;;;;;;2.20;1.10;;;;;;;;;;5055561;28;20222;-77
2022/02/19 12:41:55;;;;;;;3.60;1.85;;;;;;;;;;5064815;28;20680;-77
2022/02/19 12:44:22;;;;;;;6.60;1.50;;;;;;;;;;5044835;28;20226;-75
2022/02/19 12:46:53;;;;;;;2.20;1.20;;;;;;;;;;5051067;28;20661;-76
2022/02/19 12:49:20;;;;;;;3.22;1.20;;;;;;;;;;5044831;28;20202;-75
2022/02/19 12:51:54;;;;;;;2.33;1.67;;;;;;;;;;5036097;28;20212;-75
2022/02/19 12:54:34;;;;;;;6.10;2.00;;;;;;;;;;5034369;28;20223;-75
2022/02/19 12:57:01;;;;;;;3.45;1.20;;;;;;;;;;5062286;28;20286;-74
2022/02/19 12:59:29;;;;;;;5.18;1.67;;;;;;;;;;5037105;28;20259;-79
2022/02/19 13:01:59;;;;;;;2.63;1.25;;;;;;;;;;5037481;28;20696;-75
2022/02/19 13:04:30;;;;;;;2.85;1.00;;;;;;;;;;5034426;28;20225;-74
2022/02/19 13:06:57;;;;;;;4.30;1.40;;;;;;;;;;5035367;28;20209;-78
2022/02/19 13:09:24;;;;;;;3.30;1.27;;;;;;;;;;5036417;28;20577;-75
2022/02/19 13:11:53;;;;;;;6.57;1.20;;;;;;;;;;5048730;28;20197;-77
2022/02/19 13:14:20;;;;;;;2.78;1.20;;;;;;;;;;5034580;28;20213;-76
2022/02/19 13:16:58;;;;;;;2.97;1.52;;;;;;;;;;5034895;28;20914;-76
2022/02/19 13:19:25;;;;;;;5.50;1.52;;;;;;;;;;5032841;28;20278;-78
2022/02/19 13:22:00;;;;;;;4.00;1.70;;;;;;;;;;5032127;28;20637;-74
2022/02/19 13:24:29;;;;;;;4.75;1.20;;;;;;;;;;5033768;28;20546;-76
2022/02/19 13:26:56;;;;;;;2.67;1.60;;;;;;;;;;5034631;28;20213;-76
2022/02/19 13:29:24;;;;;;;1.70;1.30;;;;;;;;;;5034447;28;20633;-73
2022/02/19 13:31:54;;;;;;;1.85;0.90;;;;;;;;;;5034541;28;20289;-75
2022/02/19 13:34:23;;;;;;;4.47;1.95;;;;;;;;;;5035013;28;20199;-73
2022/02/19 13:36:50;;;;;;;2.58;1.50;;;;;;;;;;5036471;28;20195;-76
2022/02/19 13:39:20;;;;;;;2.95;1.23;;;;;;;;;;5037642;28;21782;-76
2022/02/19 13:41:50;;;;;;;2.67;1.30;;;;;;;;;;5034213;28;20477;-78
2022/02/19 13:44:17;;;;;;;6.75;1.60;;;;;;;;;;5037134;28;20914;-75
2022/02/19 13:46:44;;;;;;;3.28;1.67;;;;;;;;;;5037353;28;20593;-75
2022/02/19 13:49:12;;;;;;;6.55;1.58;;;;;;;;;;5037352;28;20562;-76
2022/02/19 13:51:41;;;;;;;5.35;1.70;;;;;;;;;;5037126;28;20192;-78
2022/02/19 13:54:15;;;;;;;7.85;1.30;;;;;;;;;;5057889;28;20190;-73
2022/02/19 13:56:42;;;;;;;2.63;1.17;;;;;;;;;;5037893;28;20287;-74
2022/02/19 13:59:09;;;;;;;3.95;1.38;;;;;;;;;;5035564;28;20222;-75
2022/02/19 14:01:42;;;;;;;2.47;1.50;;;;;;;;;;5036440;28;20191;-76
2022/02/19 14:04:09;;;;;;;1.80;1.10;;;;;;;;;;5037582;28;20624;-74
2022/02/19 14:06:37;;;;;;;5.22;1.80;;;;;;;;;;5037424;28;20545;-76
2022/02/19 14:09:12;;;;;;;5.32;1.48;;;;;;;;;;5037043;28;20309;-76
2022/02/19 14:11:40;;;;;;;3.88;1.45;;;;;;;;;;5038099;28;20205;-76
2022/02/19 14:14:07;;;;;;;2.25;1.00;;;;;;;;;;5036541;28;20366;-79
2022/02/19 14:16:34;;;;;;;2.25;0.90;;;;;;;;;;5038021;28;20536;-75
2022/02/19 14:19:04;;;;;;;3.63;1.35;;;;;;;;;;5035172;28;20731;-78
2022/02/19 14:21:31;;;;;;;4.43;1.38;;;;;;;;;;5035636;28;20224;-76
2022/02/19 14:24:08;;;;;;;2.95;1.45;;;;;;;;;;5037154;28;20195;-76
2022/02/19 14:26:37;;;;;;;2.40;1.20;;;;;;;;;;5037279;28;20220;-76
2022/02/19 14:29:04;;;;;;;2.85;1.35;;;;;;;;;;5033789;28;20202;-76
2022/02/19 14:31:32;;;;;;;2.42;1.10;;;;;;;;;;5036610;28;20206;-73
2022/02/19 14:33:59;;;;;;;1.30;1.10;;;;;;;;;;5035550;28;20209;-73
2022/02/19 14:36:29;;;;;;;1.25;1.10;;;;;;;;;;5036191;28;20202;-76
2022/02/19 14:38:57;;;;;;;4.40;1.15;;;;;;;;;;5036408;28;20218;-83
2022/02/19 14:41:24;;;;;;;4.47;1.30;;;;;;;;;;5040534;28;20657;-77
2022/02/19 14:43:52;;;;;;;2.85;1.05;;;;;;;;;;5053071;28;20752;-83
2022/02/19 14:46:19;;;;;;;1.42;1.00;;;;;;;;;;5036902;28;20214;-76
2022/02/19 14:48:48;;;;;;;2.83;1.30;;;;;;;;;;5037129;28;20206;-78
2022/02/19 14:51:15;;;;;;;5.10;1.92;;;;;;;;;;5037688;28;20571;-73
2022/02/19 14:53:42;;;;;;;4.95;1.60;;;;;;;;;;5038647;28;20704;-79
2022/02/19 14:56:09;;;;;;;7.28;1.40;;;;;;;;;;5036426;28;20525;-74
2022/02/19 14:58:36;;;;;;;3.60;1.50;;;;;;;;;;5037661;28;20233;-77